Latest Weather Observations for Griffith

IDN60801

Issued at 5:02 am EST Saturday 23 May 2015 (issued every 30 minutes, with the page automatically refreshed every 10 minutes)

About weather observations | Map of weather stations | Latest weather observations for NSW | Other Formats
Station Details ID: 075041 Name: GRIFFITH AIRPORT AWS Lat: -34.25 Lon: 146.07 Height: 134.0 m
Data from the previous 72 hours. | See also: Recent months at Griffith
Date/Time
EST
Temp
°C
App
Temp
°C
Dew
Point
Rel
Hum
%
Delta-T
°C
Wind Press
QNH
hPa
Press
MSL
hPa
Rain
since 9 am
mm
Dir
 
Spd
km/h
Gust
km/h
Spd
kts
Gust
kts
23/05:00am 3.4 1.8 2.7 95 0.3 CALM 0 0 0 0 1028.8 1028.8 0.0
23/04:30am 4.2 2.4 3.6 96 0.2 NNW 2 6 1 3 1028.6 1028.6 0.0
23/04:00am 4.6 2.1 3.9 95 0.3 N 6 7 3 4 1028.5 1028.5 0.0
23/03:30am 4.8 3.4 3.6 92 0.5 CALM 0 0 0 0 1028.2 1028.2 0.0
23/03:00am 5.5 3.1 4.2 91 0.6 SW 6 7 3 4 1028.3 1028.3 0.0
23/02:30am 5.6 4.2 3.8 88 0.8 CALM 0 0 0 0 1028.4 1028.4 0.0
23/02:00am 6.1 4.0 3.9 86 0.9 E 4 9 2 5 1028.5 1028.5 0.0
23/01:30am 6.7 5.4 4.2 84 1.1 CALM 0 4 0 2 1028.6 1028.6 0.0
23/01:00am 8.0 5.4 4.0 76 1.7 SE 7 9 4 5 1028.5 1028.5 0.0
23/12:30am 9.2 4.7 4.4 72 2.1 SSE 17 22 9 12 1028.4 1028.4 0.0
23/12:00am 9.5 4.6 4.3 70 2.3 S 19 26 10 14 1028.5 1028.5 0.0
 
Date/Time
EST
Temp
°C
App
Temp
°C
Dew
Point
Rel
Hum
%
Delta-T
°C
Wind Press
QNH
hPa
Press
MSL
hPa
Rain
since 9 am
mm
Dir
 
Spd
km/h
Gust
km/h
Spd
kts
Gust
kts
22/11:30pm 9.5 5.0 4.3 70 2.3 S 17 22 9 12 1028.5 1028.5 0.0
22/11:00pm 10.1 5.2 4.3 67 2.6 S 19 24 10 13 1028.2 1028.2 0.0
22/10:30pm 10.8 6.4 4.5 65 2.9 S 17 22 9 12 1028.0 1028.0 0.0
22/10:00pm 11.3 6.9 4.7 64 3.0 S 17 24 9 13 1027.9 1027.9 0.0
22/09:30pm 11.1 7.5 4.8 65 2.9 S 13 17 7 9 1027.8 1027.8 0.0
22/09:00pm 11.3 7.6 4.7 64 3.0 S 13 17 7 9 1027.7 1027.7 0.0
22/08:30pm 11.7 8.5 4.9 63 3.1 S 11 13 6 7 1027.6 1027.6 0.0
22/08:00pm 12.2 8.6 5.1 62 3.3 S 13 15 7 8 1027.5 1027.5 0.0
22/07:30pm 12.4 9.2 5.3 62 3.3 S 11 13 6 7 1027.2 1027.2 0.0
22/07:00pm 13.1 10.3 5.0 58 3.8 S 9 11 5 6 1027.0 1027.0 0.0
22/06:30pm 13.3 10.1 5.2 58 3.8 S 11 13 6 7 1026.4 1026.4 0.0
22/06:00pm 14.4 10.7 4.7 52 4.5 S 13 15 7 8 1026.0 1026.0 0.0
22/05:30pm 15.3 11.7 4.9 50 4.9 SSE 13 20 7 11 1025.6 1025.6 0.0
22/05:00pm 16.7 12.7 5.0 46 5.6 S 15 22 8 12 1025.2 1025.2 0.0
22/04:30pm 17.7 13.7 5.0 43 6.1 SSE 15 20 8 11 1025.1 1025.1 0.0
22/04:00pm 18.3 14.0 5.2 42 6.3 SSE 17 24 9 13 1024.7 1024.7 0.0
22/03:30pm 18.6 13.7 5.1 41 6.6 S 20 28 11 15 1024.5 1024.5 0.0
22/03:00pm 18.6 14.4 5.5 42 6.4 S 17 28 9 15 1024.2 1024.2 0.0
22/02:30pm 18.6 14.7 5.5 42 6.4 SSE 15 24 8 13 1024.0 1024.0 0.0
22/02:00pm 18.3 14.6 6.2 45 6.0 SE 15 22 8 12 1023.9 1023.9 0.0
22/01:30pm 17.9 13.3 5.8 45 5.9 SE 19 24 10 13 1024.1 1024.1 0.0
22/01:00pm 17.6 12.9 6.2 47 5.6 SSE 20 32 11 17 1024.2 1024.2 0.0
22/12:30pm 17.2 12.6 6.4 49 5.3 SSE 20 30 11 16 1024.2 1024.2 0.0
22/12:00pm 16.4 11.5 7.1 54 4.6 SE 22 33 12 18 1024.5 1024.5 0.0
22/11:30am 15.8 11.8 8.3 61 3.8 SE 19 28 10 15 1024.8 1024.8 0.0
22/11:00am 14.4 10.3 8.8 69 2.8 SSE 20 26 11 14 1025.1 1025.1 0.0
22/10:30am 13.3 10.2 9.0 75 2.2 SSE 15 19 8 10 1025.1 1025.1 0.0
22/10:00am 12.4 9.6 8.5 77 1.9 S 13 19 7 10 1025.0 1025.0 0.0
22/09:30am 11.0 8.2 8.4 84 1.3 S 13 19 7 10 1024.7 1024.7 0.0
22/09:00am 9.1 7.6 9.0 99 0.0 W 7 13 4 7 1024.5 1024.5 0.0
22/08:30am 7.5 6.1 7.4 99 0.0 W 4 7 2 4 1024.3 1024.3 0.0
22/08:00am 6.4 5.6 6.3 99 0.0 CALM 0 0 0 0 1023.8 1023.8 0.0
22/07:40am 5.4 3.2 5.3 99 0.0 N 6 7 3 4 1023.4 1023.4 0.0
22/07:30am 5.4 3.6 5.3 99 0.0 N 4 7 2 4 1023.3 1023.3 0.0
22/07:21am 5.4 4.3 5.3 99 0.0 CALM 0 0 0 0 1023.2 1023.2 0.0
22/07:00am 5.8 4.8 5.7 99 0.0 CALM 0 0 0 0 1023.1 1023.1 0.0
22/06:30am 6.4 5.6 6.3 99 0.0 CALM 0 0 0 0 1022.4 1022.4 0.0
22/06:00am 7.0 5.9 6.9 99 0.0 W 2 6 1 3 1022.1 1022.1 0.0
22/05:30am 7.1 6.4 7.0 99 0.0 CALM 0 0 0 0 1021.9 1021.9 0.0
22/05:00am 7.5 6.5 7.4 99 0.0 WNW 2 6 1 3 1021.9 1021.9 0.0
22/04:30am 7.7 5.8 7.4 98 0.1 W 7 9 4 5 1021.9 1021.9 0.0
22/04:00am 8.0 6.0 7.2 95 0.4 W 7 9 4 5 1021.8 1021.8 0.0
22/03:30am 8.8 6.9 7.7 93 0.5 WNW 7 11 4 6 1021.6 1021.6 0.0
22/03:00am 9.3 7.5 8.1 92 0.6 WSW 7 11 4 6 1021.4 1021.4 0.0
22/02:30am 9.5 7.0 8.4 93 0.5 W 11 13 6 7 1021.3 1021.3 0.0
22/02:00am 9.5 9.1 8.1 91 0.7 CALM 0 0 0 0 1021.5 1021.5 0.0
22/01:30am 9.6 8.0 8.2 91 0.7 WSW 6 7 3 4 1021.5 1021.5 0.0
22/01:00am 10.0 8.5 8.4 90 0.8 W 6 7 3 4 1021.5 1021.5 0.0
22/12:30am 9.9 8.3 8.7 92 0.6 NW 7 9 4 5 1021.6 1021.6 0.0
22/12:00am 10.0 8.2 8.1 88 0.9 W 7 11 4 6 1021.6 1021.6 0.0
 
Date/Time
EST
Temp
°C
App
Temp
°C
Dew
Point
Rel
Hum
%
Delta-T
°C
Wind Press
QNH
hPa
Press
MSL
hPa
Rain
since 9 am
mm
Dir
 
Spd
km/h
Gust
km/h
Spd
kts
Gust
kts
21/11:30pm 10.6 8.1 8.4 86 1.1 SW 11 13 6 7 1021.6 1021.6 0.0
21/11:00pm 10.9 8.4 8.3 84 1.3 SSW 11 13 6 7 1021.3 1021.3 0.0
21/10:30pm 11.2 8.8 8.6 84 1.3 SSW 11 13 6 7 1021.2 1021.2 0.0
21/10:00pm 11.5 9.1 8.7 83 1.4 SSW 11 17 6 9 1021.1 1021.1 0.0
21/09:30pm 11.6 8.7 9.5 87 1.1 SW 15 20 8 11 1021.0 1021.0 0.0
21/09:00pm 11.3 9.0 10.4 94 0.5 SW 13 15 7 8 1021.1 1021.1 0.0
21/08:30pm 10.6 9.6 10.4 99 0.1 WSW 6 7 3 4 1021.1 1021.1 0.0
21/08:00pm 10.7 10.0 10.1 96 0.3 WNW 4 6 2 3 1021.2 1021.2 0.0
21/07:30pm 11.1 9.5 10.2 94 0.5 WSW 9 11 5 6 1021.0 1021.0 0.0
21/07:00pm 11.2 9.5 9.9 92 0.7 SW 9 11 5 6 1020.8 1020.8 0.0
21/06:30pm 11.1 8.7 10.0 93 0.6 SW 13 17 7 9 1020.4 1020.4 0.0
21/06:00pm 10.9 8.8 9.7 92 0.6 SW 11 13 6 7 1020.2 1020.2 0.0
21/05:30pm 11.4 10.0 9.5 88 1.0 WSW 7 9 4 5 1020.0 1020.0 0.0
21/05:00pm 12.4 10.3 9.6 83 1.4 WSW 11 13 6 7 1019.8 1019.8 0.0
21/04:30pm 12.7 10.1 9.3 80 1.7 SW 13 17 7 9 1019.8 1019.8 0.0
21/04:00pm 13.2 10.2 9.1 76 2.1 SW 15 19 8 10 1019.8 1019.8 0.0
21/03:30pm 13.3 11.1 9.4 77 2.0 SSW 11 15 6 8 1019.7 1019.7 0.0
21/03:00pm 13.0 11.1 9.1 77 2.0 SSW 9 13 5 7 1020.0 1020.0 0.0
21/02:30pm 12.7 10.4 9.0 78 1.9 SSW 11 13 6 7 1019.8 1019.8 0.0
21/02:00pm 12.6 9.7 9.6 82 1.5 SW 15 19 8 10 1019.8 1019.8 0.0
21/01:30pm 12.9 11.1 9.4 79 1.8 WSW 9 15 5 8 1019.8 1019.8 0.0
21/01:00pm 12.5 10.8 9.9 84 1.3 WSW 9 11 5 6 1020.0 1020.0 0.0
21/12:30pm 11.8 10.6 10.2 90 0.8 WNW 7 9 4 5 1020.4 1020.4 0.0
21/12:28pm 11.8 10.6 10.2 90 0.8 WNW 7 9 4 5 1020.4 1020.4 0.0
21/12:00pm 11.5 10.0 10.4 93 0.6 WNW 9 11 5 6 1020.7 1020.7 0.0
21/11:30am 11.8 10.5 10.0 89 0.9 W 7 9 4 5 1021.1 1021.1 0.0
21/11:10am 11.9 10.5 9.6 86 1.2 NW 7 9 4 5 1021.1 1021.1 0.0
21/11:00am 12.0 10.8 10.2 89 0.9 N 7 11 4 6 1021.2 1021.2 0.0
21/10:55am 11.9 10.6 10.0 88 1.0 N 7 11 4 6 1021.2 1021.2 0.0
21/10:30am 11.8 10.8 10.2 90 0.8 N 6 9 3 5 1021.0 1021.0 0.0
21/10:00am 11.4 10.3 10.5 94 0.5 ENE 7 9 4 5 1020.9 1020.9 0.0
21/09:30am 11.0 9.9 10.8 99 0.1 ESE 7 11 4 6 1021.0 1021.0 0.0
21/09:00am 10.6 9.4 10.4 99 0.1 SE 7 11 4 6 1020.7 1020.7 0.0
21/08:30am 10.2 8.9 10.0 99 0.1 SSW 7 13 4 7 1020.6 1020.6 0.0
21/08:06am 10.0 8.3 9.9 99 0.1 SSW 9 11 5 6 1020.4 1020.4 0.0
21/08:00am 10.1 8.4 9.9 99 0.1 S 9 11 5 6 1020.3 1020.3 0.0
21/07:54am 10.0 8.7 9.9 99 0.1 S 7 11 4 6 1020.3 1020.3 0.0
21/07:30am 10.0 8.7 9.9 99 0.1 SW 7 9 4 5 1020.0 1020.0 0.0
21/07:00am 9.7 9.6 9.6 99 0.1 CALM 0 0 0 0 1019.8 1019.8 0.0
21/06:54am 9.8 9.8 9.7 99 0.1 CALM 0 0 0 0 1019.8 1019.8 0.0
21/06:38am 9.7 9.6 9.6 99 0.1 CALM 0 0 0 0 1019.6 1019.6 0.0
21/06:30am 9.7 9.3 9.6 99 0.1 WNW 2 6 1 3 1019.5 1019.5 0.0
21/06:19am 9.7 8.5 9.6 99 0.1 WNW 6 7 3 4 1019.5 1019.5 0.0
21/06:00am 9.6 8.8 9.5 99 0.0 NNW 4 7 2 4 1019.4 1019.4 0.0
21/05:30am 9.7 8.5 9.6 99 0.1 WNW 6 7 3 4 1019.2 1019.2 0.0
21/05:18am 9.7 8.3 9.6 99 0.1 WNW 7 9 4 5 1019.1 1019.1 0.0
21/05:06am 9.7 7.9 9.6 99 0.1 N 9 11 5 6 1019.0 1019.0 0.0
21/05:00am 9.6 7.8 9.5 99 0.0 N 9 9 5 5 1019.0 1019.0 0.0
21/04:35am 9.5 8.3 9.4 99 0.0 NNW 6 7 3 4 1018.9 1018.9 0.0
21/04:30am 9.5 8.3 9.4 99 0.0 NNW 6 7 3 4 1019.0 1019.0 0.0
21/04:00am 9.2 8.3 9.1 99 0.0 NW 4 6 2 3 1018.9 1018.9 0.0
21/03:54am 9.2 8.3 9.1 99 0.0 NW 4 6 2 3 1018.8 1018.8 0.0
21/03:30am 9.1 7.6 9.0 99 0.0 WNW 7 9 4 5 1019.0 1019.0 0.0
21/03:00am 8.3 7.1 8.2 99 0.0 WSW 4 9 2 5 1019.0 1019.0 0.0
21/02:51am 7.8 6.9 7.7 99 0.0 N 2 7 1 4 1018.9 1018.9 0.0
21/02:30am 7.4 5.6 7.1 98 0.1 N 6 7 3 4 1018.9 1018.9 0.0
21/02:00am 7.6 6.6 7.2 97 0.2 NW 2 6 1 3 1018.8 1018.8 0.0
21/01:30am 8.4 6.6 7.8 96 0.3 WNW 7 9 4 5 1018.8 1018.8 0.0
21/01:00am 8.6 7.4 8.2 97 0.2 WNW 4 6 2 3 1018.8 1018.8 0.0
21/12:30am 8.7 8.3 8.1 96 0.3 CALM 0 0 0 0 1018.9 1018.9 0.0
21/12:00am 9.7 9.4 8.8 94 0.4 CALM 0 0 0 0 1018.9 1018.9 0.0
 
Date/Time
EST
Temp
°C
App
Temp
°C
Dew
Point
Rel
Hum
%
Delta-T
°C
Wind Press
QNH
hPa
Press
MSL
hPa
Rain
since 9 am
mm
Dir
 
Spd
km/h
Gust
km/h
Spd
kts
Gust
kts
20/11:30pm 9.8 8.4 9.5 98 0.2 NNW 7 11 4 6 1018.8 1018.8 0.0
20/11:00pm 9.8 9.7 9.3 97 0.2 CALM 0 0 0 0 1018.7 1018.7 0.0
20/10:30pm 10.4 10.4 9.9 97 0.3 CALM 0 4 0 2 1018.7 1018.7 0.0
20/10:00pm 10.5 10.5 9.9 96 0.3 CALM 0 0 0 0 1018.8 1018.8 0.0
20/09:30pm 10.7 10.6 9.5 92 0.6 CALM 0 0 0 0 1018.7 1018.7 0.0
20/09:00pm 11.9 11.9 9.8 87 1.1 CALM 0 0 0 0 1018.7 1018.7 0.0
20/08:30pm 12.6 12.7 10.3 86 1.2 CALM 0 0 0 0 1018.5 1018.5 0.0
20/08:00pm 13.0 13.2 10.5 85 1.3 CALM 0 0 0 0 1018.4 1018.4 0.0
20/07:30pm 13.5 12.6 10.5 82 1.6 WSW 6 7 3 4 1018.2 1018.2 0.0
20/07:00pm 14.0 12.5 10.4 79 1.9 WSW 9 13 5 7 1017.8 1017.8 0.0
20/06:30pm 14.1 12.6 10.5 79 1.9 W 9 11 5 6 1017.5 1017.5 0.0
20/06:00pm 14.7 12.7 10.3 75 2.3 W 11 13 6 7 1017.1 1017.0 0.0
20/05:30pm 15.2 12.8 10.0 71 2.7 W 13 17 7 9 1016.7 1016.6 0.0
20/05:00pm 15.8 12.6 9.9 68 3.1 W 17 24 9 13 1016.5 1016.4 0.0
20/04:30pm 16.4 13.2 10.0 66 3.4 WNW 17 22 9 12 1016.3 1016.2 0.0
20/04:00pm 16.7 13.2 10.3 66 3.4 WNW 19 24 10 13 1016.0 1015.9 0.0
20/03:30pm 17.5 14.6 10.9 65 3.6 W 17 24 9 13 1015.8 1015.7 0.0
20/03:00pm 17.5 14.1 11.3 67 3.4 W 20 26 11 14 1015.4 1015.4 0.0
20/02:30pm 17.0 13.6 11.3 69 3.1 W 20 28 11 15 1015.3 1015.3 0.0
20/02:00pm 17.2 14.0 11.9 71 2.9 W 20 26 11 14 1015.3 1015.3 0.0
20/01:30pm 17.2 14.1 12.3 73 2.7 W 20 28 11 15 1015.5 1015.5 0.0
20/01:00pm 17.2 15.6 12.7 75 2.5 WNW 13 19 7 10 1015.5 1015.5 0.0
20/12:30pm 16.8 14.5 11.9 73 2.7 W 15 22 8 12 1015.8 1015.7 0.0
20/12:00pm 16.7 15.2 12.0 74 2.6 WNW 11 17 6 9 1015.9 1015.8 0.0
20/11:30am 15.9 13.8 12.3 79 2.0 W 15 20 8 11 1016.1 1016.0 0.0
20/11:00am 16.0 13.5 12.4 79 2.0 WNW 17 22 9 12 1016.4 1016.3 0.0
20/10:30am 15.8 13.8 12.7 82 1.7 W 15 19 8 10 1016.2 1016.1 0.0
20/10:00am 15.2 13.5 12.3 83 1.6 WNW 13 19 7 10 1015.9 1015.8 0.0
20/09:30am 14.9 13.4 13.1 89 1.0 NW 13 19 7 10 1016.1 1016.0 0.0
20/09:00am 14.2 12.9 13.6 96 0.3 NW 13 20 7 11 1015.8 1015.7 22.6
20/08:30am 13.4 12.7 13.2 99 0.1 NNW 9 15 5 8 1015.2 1015.2 22.6
20/08:00am 12.5 11.1 12.3 99 0.1 NNW 11 13 6 7 1015.0 1015.0 22.6
20/07:30am 11.9 10.7 11.7 99 0.1 NNW 9 11 5 6 1014.7 1014.7 22.6
20/07:00am 12.0 10.1 11.8 99 0.1 NNW 13 17 7 9 1014.2 1014.2 22.6
20/06:30am 11.4 9.3 11.2 99 0.1 NNW 13 15 7 8 1014.1 1014.1 22.4
20/06:00am 10.4 8.8 10.2 99 0.1 N 9 13 5 7 1013.7 1013.7 22.4
20/05:30am 10.3 9.0 10.1 99 0.1 W 7 13 4 7 1013.6 1013.6 22.4

Other Formats:

Comma delimited format used in spreadsheet applications
http://www.bom.gov.au/fwo/IDN60801/IDN60801.95704.axf

JavaScript Object Notation format (JSON) in row-major order
http://www.bom.gov.au/fwo/IDN60801/IDN60801.95704.json